< < Back
Terminal Aerodrome Forecast


Current Version              Previous Versions:   1  2  3  4  5  6  7  8  9  

Terminal Aerodrome Forecast

283
FTUS42 KCAE 221132
TAFAGS
TAF
KAGS 221132Z 2212/2312 35007KT P6SM BKN040
     FM222000 02006KT P6SM SCT040
     FM230000 VRB03KT P6SM SKC=

Latest METAR

853
SAUS70 KWBC 221100 RRD
MTRAGS
METAR KAGS 221053Z 35007KT 10SM OVC034 17/11 A3008 RMK AO2 SLP183
T01670106


USA.gov is the U.S. government's official web portal to all federal, state and local government web resources and services.